Time;durP1;ratioP1;P1;durP2;ratioP2;P2;SDS_P1;SDS_P2;PMS_P1;PMS_P2;Temp;Humidity;BMP_temperature;BMP_pressure;BME280_temperature;BME280_humidity;BME280_pressure;Samples;Min_cycle;Max_cycle;Signal;HPM_P1;HPM_P2
2023/12/25 00:02:25;;;;;;;;;2.00;2.00;;;;;;;;5046218;28;28670;-84
2023/12/25 00:04:50;;;;;;;;;4.67;4.33;;;;;;;;5036690;28;28792;-84
2023/12/25 00:07:15;;;;;;;;;4.00;3.00;;;;;;;;5043063;28;29574;-86
2023/12/25 00:09:41;;;;;;;;;7.00;3.00;;;;;;;;5055739;28;28535;-83
2023/12/25 00:12:06;;;;;;;;;8.33;3.33;;;;;;;;5038358;28;28646;-85
2023/12/25 00:14:31;;;;;;;;;6.00;2.00;;;;;;;;5054566;28;27923;-82
2023/12/25 00:16:57;;;;;;;;;6.00;4.00;;;;;;;;5050482;28;29229;-82
2023/12/25 00:19:22;;;;;;;;;2.33;2.33;;;;;;;;5051632;28;29907;-84
2023/12/25 00:21:48;;;;;;;;;3.33;3.33;;;;;;;;5046127;28;28592;-84
2023/12/25 00:24:16;;;;;;;;;7.00;4.00;;;;;;;;5033761;28;28415;-84
2023/12/25 00:26:42;;;;;;;;;1.33;1.33;;;;;;;;5029339;28;29761;-84
2023/12/25 00:29:07;;;;;;;;;8.33;2.67;;;;;;;;5034097;28;29944;-84
2023/12/25 00:31:33;;;;;;;;;5.33;4.00;;;;;;;;5040603;28;28583;-83
2023/12/25 00:33:58;;;;;;;;;5.33;3.33;;;;;;;;5062513;28;28418;-84
2023/12/25 00:36:24;;;;;;;;;3.33;2.00;;;;;;;;5052293;28;29444;-84
2023/12/25 00:38:49;;;;;;;;;9.67;4.00;;;;;;;;5040365;28;29122;-82
2023/12/25 00:41:14;;;;;;;;;3.00;2.00;;;;;;;;5060899;28;28632;-82
2023/12/25 00:43:40;;;;;;;;;1.33;1.33;;;;;;;;5057206;28;28484;-83
2023/12/25 00:46:05;;;;;;;;;9.00;5.00;;;;;;;;5034372;28;29042;-83
2023/12/25 00:48:31;;;;;;;;;3.67;2.67;;;;;;;;5062645;28;29233;-83
2023/12/25 00:50:59;;;;;;;;;3.00;3.00;;;;;;;;5052223;28;28593;-84
2023/12/25 00:53:24;;;;;;;;;3.33;3.00;;;;;;;;5065995;28;28594;-84
2023/12/25 00:55:50;;;;;;;;;4.00;3.00;;;;;;;;5040037;28;29944;-83
2023/12/25 00:58:15;;;;;;;;;3.00;3.00;;;;;;;;5062643;28;28663;-82
2023/12/25 01:00:41;;;;;;;;;4.67;3.00;;;;;;;;5049359;28;28617;-82
2023/12/25 01:03:07;;;;;;;;;4.00;2.00;;;;;;;;5060982;28;28364;-84
2023/12/25 01:05:33;;;;;;;;;5.67;3.00;;;;;;;;5048493;28;29570;-83
2023/12/25 01:07:58;;;;;;;;;3.33;3.33;;;;;;;;5061287;28;28531;-83
2023/12/25 01:10:23;;;;;;;;;3.00;1.67;;;;;;;;5061937;28;28810;-82
2023/12/25 01:12:49;;;;;;;;;5.33;2.33;;;;;;;;5047599;28;28509;-83
2023/12/25 01:15:14;;;;;;;;;0.33;0.33;;;;;;;;5062906;28;27953;-83
2023/12/25 01:17:40;;;;;;;;;4.00;4.00;;;;;;;;5038545;28;29709;-81
2023/12/25 01:20:06;;;;;;;;;6.00;4.00;;;;;;;;5035995;28;28821;-82
2023/12/25 01:22:31;;;;;;;;;6.33;6.00;;;;;;;;5028332;28;28690;-81
2023/12/25 01:24:57;;;;;;;;;9.67;6.67;;;;;;;;5037598;28;28398;-83
2023/12/25 01:27:22;;;;;;;;;6.33;5.00;;;;;;;;5026644;28;28685;-82
2023/12/25 01:29:47;;;;;;;;;12.00;8.00;;;;;;;;5051069;28;28340;-84
2023/12/25 01:32:12;;;;;;;;;9.33;6.00;;;;;;;;5026237;28;28467;-82
2023/12/25 01:34:40;;;;;;;;;5.00;4.00;;;;;;;;5036052;28;28572;-84
2023/12/25 01:37:05;;;;;;;;;6.67;4.00;;;;;;;;5041912;28;29494;-84
2023/12/25 01:39:31;;;;;;;;;4.33;2.33;;;;;;;;5032902;28;30042;-83
2023/12/25 01:41:56;;;;;;;;;10.33;8.33;;;;;;;;5050270;28;28450;-84
2023/12/25 01:44:21;;;;;;;;;8.00;4.33;;;;;;;;5031474;28;29662;-83
2023/12/25 01:46:47;;;;;;;;;4.00;4.00;;;;;;;;5052575;28;28306;-83
2023/12/25 01:49:12;;;;;;;;;7.33;4.00;;;;;;;;5061374;28;28393;-82
2023/12/25 01:51:37;;;;;;;;;6.33;3.00;;;;;;;;5059358;28;28584;-83
2023/12/25 01:54:04;;;;;;;;;7.00;5.00;;;;;;;;5047565;28;28668;-84
2023/12/25 01:56:39;;;;;;;;;10.67;7.33;;;;;;;;5033194;28;29040;-82
2023/12/25 01:59:08;;;;;;;;;7.25;3.00;;;;;;;;5051637;28;29001;-82
2023/12/25 02:01:34;;;;;;;;;7.67;5.00;;;;;;;;5054473;28;28446;-82
2023/12/25 02:04:00;;;;;;;;;11.67;8.00;;;;;;;;5033087;28;30463;-82
2023/12/25 02:06:32;;;;;;;;;7.67;6.00;;;;;;;;5030885;28;28644;-81
2023/12/25 02:08:59;;;;;;;;;9.00;5.00;;;;;;;;5045630;28;29002;-82
2023/12/25 02:11:24;;;;;;;;;5.33;5.00;;;;;;;;5025580;28;28578;-81
2023/12/25 02:13:51;;;;;;;;;6.00;5.00;;;;;;;;5023979;28;29595;-85
2023/12/25 02:16:16;;;;;;;;;7.33;4.00;;;;;;;;5028206;28;30151;-84
2023/12/25 02:18:42;;;;;;;;;4.33;3.33;;;;;;;;5052252;28;28506;-84
2023/12/25 02:21:12;;;;;;;;;3.33;1.67;;;;;;;;5041276;28;28699;-85
2023/12/25 02:23:40;;;;;;;;;5.67;3.33;;;;;;;;5043754;28;29120;-84
2023/12/25 02:26:06;;;;;;;;;7.00;3.67;;;;;;;;5048274;28;29736;-84
2023/12/25 02:28:33;;;;;;;;;7.00;3.25;;;;;;;;5048756;28;28776;-84
2023/12/25 02:30:58;;;;;;;;;3.00;2.00;;;;;;;;5021080;28;28570;-81
2023/12/25 02:33:24;;;;;;;;;4.33;2.00;;;;;;;;5029959;28;30189;-83
2023/12/25 02:35:49;;;;;;;;;2.67;2.33;;;;;;;;5029585;28;30099;-83
2023/12/25 02:38:14;;;;;;;;;6.00;4.67;;;;;;;;5032047;28;28613;-83
2023/12/25 02:40:40;;;;;;;;;5.00;3.00;;;;;;;;5064246;28;28830;-82
2023/12/25 02:43:08;;;;;;;;;3.33;1.00;;;;;;;;5043951;28;28607;-83
2023/12/25 02:45:34;;;;;;;;;4.33;3.00;;;;;;;;5032118;28;30001;-83
2023/12/25 02:47:59;;;;;;;;;7.33;1.00;;;;;;;;5058098;28;28482;-83
2023/12/25 02:50:25;;;;;;;;;2.33;2.33;;;;;;;;5033354;28;28630;-81
2023/12/25 02:52:51;;;;;;;;;2.67;2.33;;;;;;;;5040916;28;28476;-83
2023/12/25 02:55:17;;;;;;;;;7.00;2.00;;;;;;;;5049454;28;29137;-83
2023/12/25 02:57:42;;;;;;;;;4.67;3.33;;;;;;;;5031322;28;28470;-81
2023/12/25 03:00:07;;;;;;;;;2.67;1.67;;;;;;;;5049695;28;28539;-84
2023/12/25 03:02:35;;;;;;;;;2.67;1.33;;;;;;;;5066474;28;28554;-83
2023/12/25 03:05:01;;;;;;;;;4.00;2.33;;;;;;;;5035449;28;29146;-82
2023/12/25 03:07:26;;;;;;;;;7.67;4.67;;;;;;;;5041899;28;28565;-83
2023/12/25 03:09:51;;;;;;;;;4.00;2.33;;;;;;;;5041990;28;28605;-84
2023/12/25 03:12:17;;;;;;;;;6.00;3.00;;;;;;;;5024453;28;29361;-83
2023/12/25 03:14:42;;;;;;;;;1.00;1.00;;;;;;;;5045833;28;29634;-82
2023/12/25 03:17:07;;;;;;;;;2.33;2.33;;;;;;;;5052608;28;28829;-81
2023/12/25 03:19:33;;;;;;;;;3.67;3.00;;;;;;;;5051607;28;28542;-82
2023/12/25 03:21:58;;;;;;;;;1.67;1.00;;;;;;;;5019952;28;29173;-82
2023/12/25 03:24:23;;;;;;;;;5.33;2.00;;;;;;;;5044374;28;28636;-82
2023/12/25 03:26:49;;;;;;;;;3.00;1.33;;;;;;;;5046342;28;28581;-83
2023/12/25 03:29:15;;;;;;;;;1.33;1.00;;;;;;;;5041676;28;28646;-83
2023/12/25 03:31:40;;;;;;;;;1.00;0.00;;;;;;;;5067034;28;29428;-82
2023/12/25 03:34:06;;;;;;;;;1.00;1.00;;;;;;;;5029323;28;29527;-83
2023/12/25 03:36:31;;;;;;;;;2.00;0.00;;;;;;;;5030290;28;28492;-81
2023/12/25 03:38:56;;;;;;;;;3.67;1.00;;;;;;;;5044362;28;28379;-82
2023/12/25 03:41:22;;;;;;;;;1.00;1.00;;;;;;;;5038867;28;28610;-82
2023/12/25 03:43:47;;;;;;;;;1.33;1.00;;;;;;;;5047073;28;28438;-82
2023/12/25 03:46:13;;;;;;;;;1.00;1.00;;;;;;;;5039754;28;28486;-82
2023/12/25 03:48:38;;;;;;;;;1.00;0.00;;;;;;;;5058824;28;28444;-82
2023/12/25 03:51:04;;;;;;;;;3.33;1.00;;;;;;;;5049045;28;28411;-81
2023/12/25 03:53:32;;;;;;;;;2.33;1.00;;;;;;;;5024513;28;28556;-83
2023/12/25 03:56:01;;;;;;;;;4.25;2.00;;;;;;;;5020458;28;28826;-83
2023/12/25 03:58:26;;;;;;;;;2.75;0.50;;;;;;;;5031942;28;28559;-85
2023/12/25 04:00:52;;;;;;;;;2.00;2.00;;;;;;;;5032224;28;29324;-82
2023/12/25 04:03:17;;;;;;;;;3.00;0.00;;;;;;;;5049615;28;29745;-82
2023/12/25 04:05:42;;;;;;;;;4.67;1.33;;;;;;;;5042478;28;28630;-81
2023/12/25 04:08:08;;;;;;;;;1.00;1.00;;;;;;;;5048233;28;29810;-83
2023/12/25 04:10:34;;;;;;;;;4.00;2.00;;;;;;;;5031429;28;29528;-82
2023/12/25 04:12:59;;;;;;;;;4.67;2.00;;;;;;;;5041674;28;29099;-82
2023/12/25 04:15:24;;;;;;;;;4.67;1.00;;;;;;;;5052419;28;28828;-83
2023/12/25 04:17:50;;;;;;;;;1.00;1.00;;;;;;;;5054597;28;28835;-82
2023/12/25 04:20:15;;;;;;;;;1.00;1.00;;;;;;;;5035132;28;28590;-83
2023/12/25 04:22:40;;;;;;;;;5.33;2.00;;;;;;;;5043282;28;28449;-81
2023/12/25 04:25:06;;;;;;;;;2.67;1.00;;;;;;;;5051434;28;28399;-83
2023/12/25 04:27:31;;;;;;;;;3.00;2.00;;;;;;;;5027856;28;28899;-83
2023/12/25 04:29:57;;;;;;;;;1.00;1.00;;;;;;;;5052325;28;28536;-84
2023/12/25 04:32:22;;;;;;;;;1.00;0.00;;;;;;;;5051895;28;29708;-83
2023/12/25 04:34:47;;;;;;;;;2.00;1.00;;;;;;;;5053190;28;28793;-83
2023/12/25 04:37:13;;;;;;;;;1.67;0.33;;;;;;;;5043369;28;28670;-83
2023/12/25 04:39:40;;;;;;;;;1.00;1.00;;;;;;;;5052222;28;27986;-83
2023/12/25 04:42:05;;;;;;;;;2.00;1.00;;;;;;;;5055332;28;28682;-82
2023/12/25 04:44:31;;;;;;;;;2.00;0.00;;;;;;;;5036675;28;28724;-82
2023/12/25 04:46:56;;;;;;;;;3.00;1.00;;;;;;;;5052867;28;28881;-81
2023/12/25 04:49:22;;;;;;;;;3.00;1.00;;;;;;;;5054427;28;28784;-84
2023/12/25 04:51:48;;;;;;;;;2.00;1.00;;;;;;;;5032711;28;30702;-83
2023/12/25 04:54:17;;;;;;;;;0.00;0.00;;;;;;;;5046935;28;28362;-83
2023/12/25 04:56:46;;;;;;;;;0.67;0.67;;;;;;;;5056777;28;28315;-93
2023/12/25 04:59:11;;;;;;;;;3.00;1.33;;;;;;;;5056916;28;28295;-90
2023/12/25 05:01:39;;;;;;;;;1.00;1.00;;;;;;;;5079065;28;28458;-91
2023/12/25 05:04:05;;;;;;;;;1.50;0.00;;;;;;;;5076672;28;28549;-92
2023/12/25 05:06:30;;;;;;;;;0.00;0.00;;;;;;;;5040983;28;27853;-86
2023/12/25 05:08:56;;;;;;;;;1.00;1.00;;;;;;;;5036523;28;29113;-84
2023/12/25 05:11:23;;;;;;;;;1.00;1.00;;;;;;;;5038245;28;29076;-84
2023/12/25 05:13:49;;;;;;;;;0.50;0.50;;;;;;;;5036614;28;30025;-84
2023/12/25 05:16:14;;;;;;;;;1.67;0.00;;;;;;;;5034833;28;27864;-83
2023/12/25 05:18:39;;;;;;;;;0.00;0.00;;;;;;;;5046480;28;28600;-87
2023/12/25 05:21:06;;;;;;;;;2.33;1.00;;;;;;;;5040183;28;29582;-83
2023/12/25 05:23:32;;;;;;;;;1.00;1.00;;;;;;;;5051039;28;28507;-83
2023/12/25 05:25:58;;;;;;;;;1.00;0.33;;;;;;;;5058375;28;28254;-86
2023/12/25 05:28:26;;;;;;;;;4.00;1.00;;;;;;;;5050997;28;28294;-84
2023/12/25 05:30:52;;;;;;;;;1.33;0.33;;;;;;;;5052536;28;30066;-84
2023/12/25 05:33:17;;;;;;;;;0.00;0.00;;;;;;;;5068440;28;27844;-82
2023/12/25 05:35:45;;;;;;;;;1.00;0.00;;;;;;;;5065383;28;28618;-83
2023/12/25 05:38:11;;;;;;;;;0.00;0.00;;;;;;;;5046368;28;28793;-82
2023/12/25 05:40:36;;;;;;;;;0.67;0.00;;;;;;;;5050907;28;30883;-83
2023/12/25 05:43:03;;;;;;;;;1.67;1.67;;;;;;;;5063721;28;27773;-83
2023/12/25 05:45:28;;;;;;;;;0.00;0.00;;;;;;;;5050526;28;28832;-82
2023/12/25 05:47:54;;;;;;;;;0.33;0.00;;;;;;;;5064892;28;28471;-83
2023/12/25 05:50:19;;;;;;;;;2.00;1.00;;;;;;;;5072028;28;28406;-84
2023/12/25 05:52:45;;;;;;;;;0.00;0.00;;;;;;;;5073696;28;28459;-82
2023/12/25 05:55:11;;;;;;;;;1.00;1.00;;;;;;;;5055311;28;28034;-83
2023/12/25 05:57:36;;;;;;;;;0.33;0.33;;;;;;;;5046848;28;29379;-83
2023/12/25 06:00:02;;;;;;;;;0.67;0.00;;;;;;;;5057033;28;30275;-82
2023/12/25 06:02:28;;;;;;;;;0.00;0.00;;;;;;;;5069501;28;27882;-82
2023/12/25 06:04:53;;;;;;;;;1.00;0.00;;;;;;;;5064558;28;28263;-83
2023/12/25 06:07:19;;;;;;;;;0.75;0.25;;;;;;;;5062596;28;27911;-82
2023/12/25 06:09:45;;;;;;;;;2.00;0.00;;;;;;;;5061482;28;29828;-90
2023/12/25 06:12:12;;;;;;;;;5.00;0.25;;;;;;;;5069964;28;27860;-88
2023/12/25 06:14:37;;;;;;;;;0.00;0.00;;;;;;;;5069425;28;27964;-88
2023/12/25 06:17:04;;;;;;;;;0.00;0.00;;;;;;;;5045431;28;29471;-81
2023/12/25 06:19:29;;;;;;;;;0.00;0.00;;;;;;;;5039376;28;30117;-87
2023/12/25 06:21:54;;;;;;;;;0.00;0.00;;;;;;;;5030025;28;28521;-88
2023/12/25 06:24:20;;;;;;;;;0.00;0.00;;;;;;;;5046650;28;28463;-85
2023/12/25 06:26:45;;;;;;;;;0.00;0.00;;;;;;;;5032634;28;28070;-87
2023/12/25 06:29:11;;;;;;;;;1.00;0.00;;;;;;;;5051710;28;28507;-86
2023/12/25 06:31:36;;;;;;;;;1.00;0.00;;;;;;;;5031393;28;28669;-87
2023/12/25 06:34:02;;;;;;;;;2.67;0.00;;;;;;;;5032807;28;28834;-86
2023/12/25 06:36:27;;;;;;;;;0.00;0.00;;;;;;;;5019809;28;29094;-87
2023/12/25 06:38:52;;;;;;;;;0.00;0.00;;;;;;;;5047658;28;30009;-83
2023/12/25 06:41:18;;;;;;;;;0.67;0.00;;;;;;;;5051735;28;28994;-84
2023/12/25 06:43:49;;;;;;;;;0.00;0.00;;;;;;;;5045579;28;29231;-83
2023/12/25 06:46:15;;;;;;;;;1.25;0.75;;;;;;;;5038219;28;29534;-83
2023/12/25 06:48:41;;;;;;;;;1.33;0.00;;;;;;;;5057444;28;28478;-82
2023/12/25 06:51:08;;;;;;;;;1.00;0.00;;;;;;;;5050286;28;28476;-84
2023/12/25 06:53:33;;;;;;;;;1.00;0.00;;;;;;;;5029966;28;29694;-84
2023/12/25 06:55:59;;;;;;;;;0.00;0.00;;;;;;;;5030806;28;30937;-84
2023/12/25 06:58:24;;;;;;;;;2.00;0.00;;;;;;;;5029533;28;29005;-83
2023/12/25 07:00:49;;;;;;;;;0.00;0.00;;;;;;;;5048853;28;28849;-81
2023/12/25 07:03:15;;;;;;;;;0.00;0.00;;;;;;;;5028860;28;28708;-79
2023/12/25 07:05:41;;;;;;;;;0.00;0.00;;;;;;;;5029423;28;28911;-79
2023/12/25 07:08:07;;;;;;;;;0.25;0.25;;;;;;;;5041329;28;29452;-78
2023/12/25 07:10:32;;;;;;;;;0.00;0.00;;;;;;;;5046828;28;28513;-81
2023/12/25 07:12:58;;;;;;;;;0.00;0.00;;;;;;;;5030385;28;28408;-81
2023/12/25 07:15:23;;;;;;;;;0.00;0.00;;;;;;;;5047700;28;29239;-90
2023/12/25 07:17:48;;;;;;;;;1.00;0.00;;;;;;;;5030043;28;29652;-87
2023/12/25 07:20:14;;;;;;;;;0.00;0.00;;;;;;;;5051932;28;28537;-83
2023/12/25 07:22:40;;;;;;;;;0.00;0.00;;;;;;;;5031580;28;28539;-87
2023/12/25 07:25:08;;;;;;;;;0.00;0.00;;;;;;;;5042619;28;28842;-83
2023/12/25 07:27:34;;;;;;;;;0.00;0.00;;;;;;;;5024672;28;28636;-84
2023/12/25 07:29:59;;;;;;;;;0.00;0.00;;;;;;;;5018356;28;28604;-84
2023/12/25 07:32:27;;;;;;;;;0.00;0.00;;;;;;;;5038224;28;28917;-85
2023/12/25 07:34:52;;;;;;;;;0.00;0.00;;;;;;;;5053486;28;29176;-86
2023/12/25 07:37:17;;;;;;;;;2.00;0.00;;;;;;;;5042625;28;28730;-86
2023/12/25 07:39:43;;;;;;;;;0.00;0.00;;;;;;;;5027746;28;28499;-87
2023/12/25 07:42:08;;;;;;;;;5.33;4.67;;;;;;;;5043064;28;28435;-84
2023/12/25 07:44:40;;;;;;;;;0.00;0.00;;;;;;;;5044153;28;29160;-84
2023/12/25 07:47:08;;;;;;;;;0.67;0.00;;;;;;;;5037600;28;29294;-88
2023/12/25 07:49:34;;;;;;;;;3.75;1.00;;;;;;;;5043162;28;28590;-86
2023/12/25 07:52:08;;;;;;;;;0.00;0.00;;;;;;;;5044408;28;29749;-83
2023/12/25 07:54:33;;;;;;;;;0.00;0.00;;;;;;;;5033436;28;29311;-84
2023/12/25 07:56:58;;;;;;;;;1.00;1.00;;;;;;;;5030650;28;29819;-89
2023/12/25 07:59:24;;;;;;;;;1.00;0.00;;;;;;;;5043581;28;27903;-87
2023/12/25 08:01:49;;;;;;;;;0.67;0.67;;;;;;;;5044184;28;28726;-84
2023/12/25 08:04:15;;;;;;;;;0.00;0.00;;;;;;;;5043880;28;28692;-85
2023/12/25 08:06:41;;;;;;;;;2.67;2.67;;;;;;;;5047087;28;29341;-84
2023/12/25 08:09:09;;;;;;;;;0.00;0.00;;;;;;;;5023090;28;29037;-86
2023/12/25 08:11:35;;;;;;;;;0.00;0.00;;;;;;;;5041793;28;28887;-84
2023/12/25 08:14:00;;;;;;;;;0.33;0.33;;;;;;;;5028147;28;29525;-85
2023/12/25 08:16:25;;;;;;;;;1.00;1.00;;;;;;;;5031706;28;31377;-83
2023/12/25 08:18:50;;;;;;;;;0.00;0.00;;;;;;;;5021446;28;28830;-85
2023/12/25 08:21:17;;;;;;;;;1.00;1.00;;;;;;;;5023713;28;28916;-84
2023/12/25 08:23:42;;;;;;;;;9.00;8.00;;;;;;;;5029917;28;28680;-85
2023/12/25 08:26:07;;;;;;;;;0.00;0.00;;;;;;;;5041573;28;28611;-84
2023/12/25 08:28:32;;;;;;;;;0.00;0.00;;;;;;;;5047426;28;28553;-84
2023/12/25 08:30:58;;;;;;;;;1.00;1.00;;;;;;;;5050651;28;28554;-87
2023/12/25 08:33:23;;;;;;;;;0.00;0.00;;;;;;;;5031891;28;29274;-86
2023/12/25 08:35:50;;;;;;;;;0.00;0.00;;;;;;;;5044563;28;28863;-86
2023/12/25 08:38:15;;;;;;;;;1.50;0.00;;;;;;;;5049238;28;28454;-84
2023/12/25 08:40:40;;;;;;;;;0.00;0.00;;;;;;;;5031572;28;28188;-84
2023/12/25 08:43:05;;;;;;;;;0.00;0.00;;;;;;;;5041552;28;28878;-85
2023/12/25 08:45:31;;;;;;;;;0.00;0.00;;;;;;;;5027699;28;30380;-85
2023/12/25 08:47:56;;;;;;;;;1.00;0.00;;;;;;;;5042057;28;28877;-83
2023/12/25 08:50:21;;;;;;;;;0.00;0.00;;;;;;;;5051065;27;28671;-82
2023/12/25 08:52:47;;;;;;;;;1.00;0.00;;;;;;;;5040134;28;28916;-83
2023/12/25 08:55:12;;;;;;;;;2.00;1.00;;;;;;;;5044727;28;28839;-84
2023/12/25 08:57:37;;;;;;;;;0.75;0.75;;;;;;;;5019300;28;29077;-84
2023/12/25 09:00:10;;;;;;;;;1.00;1.00;;;;;;;;5036971;28;28253;-86
2023/12/25 09:02:35;;;;;;;;;0.00;0.00;;;;;;;;5050515;28;29258;-86
2023/12/25 09:05:01;;;;;;;;;1.33;0.00;;;;;;;;5055004;28;29142;-86
2023/12/25 09:07:27;;;;;;;;;0.33;0.33;;;;;;;;5027225;28;28580;-86
2023/12/25 09:09:55;;;;;;;;;0.00;0.00;;;;;;;;5047510;28;28592;-85
2023/12/25 09:12:20;;;;;;;;;0.25;0.25;;;;;;;;5025771;28;29269;-84
2023/12/25 09:14:46;;;;;;;;;0.00;0.00;;;;;;;;5024771;28;30269;-84
2023/12/25 09:17:12;;;;;;;;;0.00;0.00;;;;;;;;5053890;28;28611;-86
2023/12/25 09:19:38;;;;;;;;;1.00;0.00;;;;;;;;5054035;28;28835;-83
2023/12/25 09:22:03;;;;;;;;;0.00;0.00;;;;;;;;5056364;28;28438;-85
2023/12/25 09:24:29;;;;;;;;;0.00;0.00;;;;;;;;5032981;28;28989;-83
2023/12/25 09:26:54;;;;;;;;;0.00;0.00;;;;;;;;5056992;28;28834;-85
2023/12/25 09:29:22;;;;;;;;;0.00;0.00;;;;;;;;5054951;28;28403;-83
2023/12/25 09:31:47;;;;;;;;;0.00;0.00;;;;;;;;5041445;28;29240;-84
2023/12/25 09:34:13;;;;;;;;;0.00;0.00;;;;;;;;5034303;28;31093;-85
2023/12/25 09:36:39;;;;;;;;;2.00;1.00;;;;;;;;5045364;28;29713;-84
2023/12/25 09:39:04;;;;;;;;;0.00;0.00;;;;;;;;5039622;28;28557;-86
2023/12/25 09:41:32;;;;;;;;;0.33;0.33;;;;;;;;5053721;28;29526;-86
2023/12/25 09:43:58;;;;;;;;;0.00;0.00;;;;;;;;5063505;28;28258;-84
2023/12/25 09:46:23;;;;;;;;;0.00;0.00;;;;;;;;5063937;28;27796;-85
2023/12/25 09:48:56;;;;;;;;;0.00;0.00;;;;;;;;5072257;28;28383;-85
2023/12/25 09:51:25;;;;;;;;;2.25;0.25;;;;;;;;5064612;28;28138;-84
2023/12/25 09:53:51;;;;;;;;;0.00;0.00;;;;;;;;5067640;28;28391;-87
2023/12/25 09:56:16;;;;;;;;;0.00;0.00;;;;;;;;5044316;28;28375;-84
2023/12/25 09:58:43;;;;;;;;;0.00;0.00;;;;;;;;5034967;28;28762;-85
2023/12/25 10:01:09;;;;;;;;;2.80;0.00;;;;;;;;5029971;28;28555;-85
2023/12/25 10:03:37;;;;;;;;;0.00;0.00;;;;;;;;5033156;28;29381;-85
2023/12/25 10:06:02;;;;;;;;;0.00;0.00;;;;;;;;5053768;28;28547;-84
2023/12/25 10:08:28;;;;;;;;;0.00;0.00;;;;;;;;5037454;28;28510;-85
2023/12/25 10:10:54;;;;;;;;;0.00;0.00;;;;;;;;5025121;28;29913;-83
2023/12/25 10:13:20;;;;;;;;;1.00;1.00;;;;;;;;5036150;28;29865;-83
2023/12/25 10:15:45;;;;;;;;;0.67;0.00;;;;;;;;5062331;28;28730;-82
2023/12/25 10:18:11;;;;;;;;;1.67;0.33;;;;;;;;5054135;28;28529;-85
2023/12/25 10:20:36;;;;;;;;;0.00;0.00;;;;;;;;5047874;28;28985;-84
2023/12/25 10:23:11;;;;;;;;;4.67;2.00;;;;;;;;5041223;28;29844;-84
2023/12/25 10:25:44;;;;;;;;;0.00;0.00;;;;;;;;5047106;28;28785;-87
2023/12/25 10:28:10;;;;;;;;;2.00;1.00;;;;;;;;5052825;28;28516;-86
2023/12/25 10:30:35;;;;;;;;;2.00;0.75;;;;;;;;5049796;28;29284;-84
2023/12/25 10:33:14;;;;;;;;;1.67;1.67;;;;;;;;5031606;28;31214;-88
2023/12/25 10:35:40;;;;;;;;;2.00;1.00;;;;;;;;5048209;28;28786;-85
2023/12/25 10:38:06;;;;;;;;;0.00;0.00;;;;;;;;5048045;28;28647;-85
2023/12/25 10:40:32;;;;;;;;;0.50;0.50;;;;;;;;5051822;28;28598;-85
2023/12/25 10:43:01;;;;;;;;;2.50;1.00;;;;;;;;5047875;28;28682;-85
2023/12/25 10:45:27;;;;;;;;;2.00;1.00;;;;;;;;5046876;28;28807;-85
2023/12/25 10:48:02;;;;;;;;;0.00;0.00;;;;;;;;5031478;28;28804;-84
2023/12/25 10:50:30;;;;;;;;;0.00;0.00;;;;;;;;5030532;28;28763;-84
2023/12/25 10:52:59;;;;;;;;;0.25;0.25;;;;;;;;5030342;28;29239;-85
2023/12/25 10:55:33;;;;;;;;;0.00;0.00;;;;;;;;5048414;28;28809;-85
2023/12/25 10:57:58;;;;;;;;;1.50;1.50;;;;;;;;5031642;28;28916;-86
2023/12/25 11:00:25;;;;;;;;;0.33;0.33;;;;;;;;5048752;28;28467;-84
2023/12/25 11:02:52;;;;;;;;;0.75;0.00;;;;;;;;5048709;28;28788;-85
2023/12/25 11:05:18;;;;;;;;;0.20;0.20;;;;;;;;5052370;28;29859;-85
2023/12/25 11:07:44;;;;;;;;;1.00;1.00;;;;;;;;5032663;28;28352;-87
2023/12/25 11:10:11;;;;;;;;;1.00;1.00;;;;;;;;5040600;28;29442;-84
2023/12/25 11:12:37;;;;;;;;;1.75;0.00;;;;;;;;5056089;28;28886;-83
2023/12/25 11:15:03;;;;;;;;;1.75;1.00;;;;;;;;5057813;28;28550;-84
2023/12/25 11:17:29;;;;;;;;;4.00;4.00;;;;;;;;5052423;28;28427;-84
2023/12/25 11:19:55;;;;;;;;;0.00;0.00;;;;;;;;5034966;28;28671;-84
2023/12/25 11:22:36;;;;;;;;;1.00;1.00;;;;;;;;5063279;28;28620;-84
2023/12/25 11:25:04;;;;;;;;;2.00;0.25;;;;;;;;5060432;28;27925;-82
2023/12/25 11:27:30;;;;;;;;;0.00;0.00;;;;;;;;5043056;28;28290;-84
2023/12/25 11:30:02;;;;;;;;;2.00;1.00;;;;;;;;5058758;28;28652;-83
2023/12/25 11:32:27;;;;;;;;;2.00;1.00;;;;;;;;5036702;28;28569;-82
2023/12/25 11:34:53;;;;;;;;;3.67;2.00;;;;;;;;5036505;28;30128;-85
2023/12/25 11:37:23;;;;;;;;;1.67;1.67;;;;;;;;5031759;28;28965;-84
2023/12/25 11:39:52;;;;;;;;;5.00;4.00;;;;;;;;5037186;28;29295;-84
2023/12/25 11:42:17;;;;;;;;;3.00;3.00;;;;;;;;5039471;28;30232;-87
2023/12/25 11:44:43;;;;;;;;;4.00;3.33;;;;;;;;5069333;28;28386;-81
2023/12/25 11:47:08;;;;;;;;;0.67;0.67;;;;;;;;5045077;28;28407;-82
2023/12/25 11:49:34;;;;;;;;;6.00;4.00;;;;;;;;5063211;28;28441;-83
2023/12/25 11:51:59;;;;;;;;;2.75;2.75;;;;;;;;5075297;28;29374;-83
2023/12/25 11:54:29;;;;;;;;;3.33;2.33;;;;;;;;5042470;28;28640;-84
2023/12/25 11:57:02;;;;;;;;;3.67;3.67;;;;;;;;5052131;28;28428;-85
2023/12/25 11:59:28;;;;;;;;;3.67;2.33;;;;;;;;5051287;28;29213;-82
2023/12/25 12:01:57;;;;;;;;;3.50;3.50;;;;;;;;5052492;28;28685;-85
2023/12/25 12:04:25;;;;;;;;;4.25;4.25;;;;;;;;5035334;28;28554;-83
2023/12/25 12:06:50;;;;;;;;;4.00;3.00;;;;;;;;5031858;28;28465;-82
2023/12/25 12:09:16;;;;;;;;;3.67;3.00;;;;;;;;5049205;28;28834;-82
2023/12/25 12:11:41;;;;;;;;;3.33;2.33;;;;;;;;5050707;28;28521;-84
2023/12/25 12:14:06;;;;;;;;;1.33;1.33;;;;;;;;5053026;28;29169;-83
2023/12/25 12:16:33;;;;;;;;;1.33;1.00;;;;;;;;5055642;28;28479;-85
2023/12/25 12:19:01;;;;;;;;;2.25;1.00;;;;;;;;5036315;28;29874;-85
2023/12/25 12:21:27;;;;;;;;;3.25;2.25;;;;;;;;5052200;28;28816;-83
2023/12/25 12:23:52;;;;;;;;;2.00;2.00;;;;;;;;5025607;28;28549;-82
2023/12/25 12:26:17;;;;;;;;;2.00;2.00;;;;;;;;5048332;28;28429;-82
2023/12/25 12:28:43;;;;;;;;;7.33;5.33;;;;;;;;5048753;28;29193;-81
2023/12/25 12:31:09;;;;;;;;;11.00;10.33;;;;;;;;5047756;28;29067;-83
2023/12/25 12:33:34;;;;;;;;;19.33;16.33;;;;;;;;5048019;28;28572;-82
2023/12/25 12:36:02;;;;;;;;;11.33;8.00;;;;;;;;5049212;28;28419;-83
2023/12/25 12:38:31;;;;;;;;;9.00;7.33;;;;;;;;5048031;28;28641;-83
2023/12/25 12:40:57;;;;;;;;;8.33;6.67;;;;;;;;5047730;28;28494;-82
2023/12/25 12:43:22;;;;;;;;;6.67;6.67;;;;;;;;5027358;28;28683;-83
2023/12/25 12:45:47;;;;;;;;;5.00;4.00;;;;;;;;5041188;28;28537;-83
2023/12/25 12:48:13;;;;;;;;;12.67;8.67;;;;;;;;5049605;28;28547;-83
2023/12/25 12:50:38;;;;;;;;;6.67;6.67;;;;;;;;5059285;28;28858;-82
2023/12/25 12:53:03;;;;;;;;;5.33;4.33;;;;;;;;5020316;28;28852;-84
2023/12/25 12:55:33;;;;;;;;;9.00;6.33;;;;;;;;5053799;28;29020;-83
2023/12/25 12:57:58;;;;;;;;;6.00;6.00;;;;;;;;5036380;28;29427;-81
2023/12/25 13:00:23;;;;;;;;;4.67;4.67;;;;;;;;5036361;28;28749;-84
2023/12/25 13:02:52;;;;;;;;;2.00;2.00;;;;;;;;5037758;28;29182;-83
2023/12/25 13:05:17;;;;;;;;;5.00;4.00;;;;;;;;5031000;28;28719;-84
2023/12/25 13:07:43;;;;;;;;;6.00;5.00;;;;;;;;5064721;28;28218;-82
2023/12/25 13:10:08;;;;;;;;;4.33;3.33;;;;;;;;5064554;28;27997;-82
2023/12/25 13:12:33;;;;;;;;;6.00;4.33;;;;;;;;5046719;28;28715;-85
2023/12/25 13:14:58;;;;;;;;;3.33;2.33;;;;;;;;5042758;28;28935;-83
2023/12/25 13:17:33;;;;;;;;;5.33;5.00;;;;;;;;5054754;28;28447;-83
2023/12/25 13:19:58;;;;;;;;;6.00;4.67;;;;;;;;5055076;28;28530;-83
2023/12/25 13:22:23;;;;;;;;;5.00;4.33;;;;;;;;5035224;28;29075;-84
2023/12/25 13:24:48;;;;;;;;;16.00;11.00;;;;;;;;5034520;28;28854;-83
2023/12/25 13:27:14;;;;;;;;;9.33;7.33;;;;;;;;5051782;28;28667;-81
2023/12/25 13:29:39;;;;;;;;;8.00;5.00;;;;;;;;5051333;28;28675;-83
2023/12/25 13:32:04;;;;;;;;;6.33;5.00;;;;;;;;5053164;28;28100;-82
2023/12/25 13:34:30;;;;;;;;;9.33;4.67;;;;;;;;5051761;28;28508;-80
2023/12/25 13:36:55;;;;;;;;;6.00;5.00;;;;;;;;5051301;28;28948;-81
2023/12/25 13:39:23;;;;;;;;;3.33;3.33;;;;;;;;5050566;28;29082;-83
2023/12/25 13:41:49;;;;;;;;;3.00;3.00;;;;;;;;5026084;28;28688;-81
2023/12/25 13:44:14;;;;;;;;;4.67;4.33;;;;;;;;5027560;28;28524;-83
2023/12/25 13:46:42;;;;;;;;;4.67;4.00;;;;;;;;5033135;28;28696;-82
2023/12/25 13:49:08;;;;;;;;;4.75;3.75;;;;;;;;5049460;28;28885;-83
2023/12/25 13:51:34;;;;;;;;;5.67;2.00;;;;;;;;5063824;28;28852;-82
2023/12/25 13:53:59;;;;;;;;;3.00;1.00;;;;;;;;5051212;28;28493;-82
2023/12/25 13:56:27;;;;;;;;;6.33;3.67;;;;;;;;5050420;28;29141;-81
2023/12/25 13:58:53;;;;;;;;;4.00;4.00;;;;;;;;5051289;28;28620;-84
2023/12/25 14:01:19;;;;;;;;;5.00;4.25;;;;;;;;5035392;28;30260;-81
2023/12/25 14:03:44;;;;;;;;;3.00;1.00;;;;;;;;5051702;28;28491;-82
2023/12/25 14:06:09;;;;;;;;;3.67;2.00;;;;;;;;5032480;28;30126;-83
2023/12/25 14:08:34;;;;;;;;;2.67;1.67;;;;;;;;5049914;28;28554;-83
2023/12/25 14:11:00;;;;;;;;;3.00;1.00;;;;;;;;5031883;28;29132;-81
2023/12/25 14:13:25;;;;;;;;;1.00;1.00;;;;;;;;5050762;28;28519;-82
2023/12/25 14:15:51;;;;;;;;;6.00;2.00;;;;;;;;5050385;28;28578;-82
2023/12/25 14:18:16;;;;;;;;;2.67;1.67;;;;;;;;5050558;28;29141;-82
2023/12/25 14:20:42;;;;;;;;;2.33;2.33;;;;;;;;5049730;28;28972;-86
2023/12/25 14:23:07;;;;;;;;;5.00;2.00;;;;;;;;5031918;28;28665;-83
2023/12/25 14:25:32;;;;;;;;;4.67;3.33;;;;;;;;5030633;28;29492;-83
2023/12/25 14:27:58;;;;;;;;;8.67;4.67;;;;;;;;5031525;28;29716;-85
2023/12/25 14:30:23;;;;;;;;;2.00;2.00;;;;;;;;5031527;28;28859;-82
2023/12/25 14:32:50;;;;;;;;;2.33;2.33;;;;;;;;5032039;28;28656;-83
2023/12/25 14:35:16;;;;;;;;;4.67;2.00;;;;;;;;5032700;28;29992;-83
2023/12/25 14:37:41;;;;;;;;;2.00;1.67;;;;;;;;5031324;28;29285;-83